createdAt,value
2017-03-25T00:00:01.578Z,857.48
2017-03-25T00:00:05.980Z,857.48
2017-03-25T00:00:10.409Z,857.48
2017-03-25T00:00:14.879Z,857.47
2017-03-25T00:00:19.197Z,857.45
2017-03-25T00:00:23.622Z,857.45
2017-03-25T00:00:28.050Z,857.45
2017-03-25T00:00:32.365Z,857.44
2017-03-25T00:00:36.806Z,857.46
2017-03-25T00:00:41.230Z,857.47
2017-03-25T00:00:45.658Z,857.45
2017-03-25T00:00:49.972Z,857.44
2017-03-25T00:00:54.409Z,857.46
2017-03-25T00:00:58.837Z,857.41
2017-03-25T00:01:03.465Z,857.48
2017-03-25T00:01:07.778Z,857.42
2017-03-25T00:01:12.206Z,857.48
2017-03-25T00:01:16.399Z,857.45
2017-03-25T00:01:20.597Z,857.41
2017-03-25T00:01:24.795Z,857.39
2017-03-25T00:01:29.218Z,857.43
2017-03-25T00:01:33.649Z,857.45
2017-03-25T00:01:38.078Z,857.46
2017-03-25T00:01:42.393Z,857.46
2017-03-25T00:01:46.701Z,857.44
2017-03-25T00:01:51.014Z,857.46
2017-03-25T00:01:55.331Z,857.46
2017-03-25T00:01:59.757Z,857.41
2017-03-25T00:02:04.188Z,857.45
2017-03-25T00:02:08.615Z,857.45
2017-03-25T00:02:13.089Z,857.47
2017-03-25T00:02:17.514Z,857.45
2017-03-25T00:02:21.815Z,857.45
2017-03-25T00:02:26.246Z,857.46
2017-03-25T00:02:30.722Z,857.43
2017-03-25T00:02:35.031Z,857.42
2017-03-25T00:02:39.333Z,857.43
2017-03-25T00:02:43.760Z,857.45
2017-03-25T00:02:48.184Z,857.45
2017-03-25T00:02:52.491Z,857.41
2017-03-25T00:02:56.684Z,857.44
2017-03-25T00:03:01.112Z,857.44
2017-03-25T00:03:05.533Z,857.43
2017-03-25T00:03:09.962Z,857.45
2017-03-25T00:03:14.274Z,857.41
2017-03-25T00:03:18.699Z,857.43
2017-03-25T00:03:23.128Z,857.44
2017-03-25T00:03:27.550Z,857.43
2017-03-25T00:03:31.973Z,857.45
2017-03-25T00:03:36.191Z,857.44
2017-03-25T00:03:40.619Z,857.45
2017-03-25T00:03:45.044Z,857.44
2017-03-25T00:03:49.348Z,857.4
2017-03-25T00:03:53.666Z,857.37
2017-03-25T00:03:58.102Z,857.41
2017-03-25T00:04:02.530Z,857.44
2017-03-25T00:04:06.959Z,857.45
2017-03-25T00:04:11.388Z,857.42
2017-03-25T00:04:15.812Z,857.43
2017-03-25T00:04:20.121Z,857.39
2017-03-25T00:04:24.555Z,857.43
2017-03-25T00:04:28.855Z,857.39
2017-03-25T00:04:33.287Z,857.41
2017-03-25T00:04:37.486Z,857.44
2017-03-25T00:04:41.794Z,857.42
2017-03-25T00:04:46.118Z,857.42
2017-03-25T00:04:50.199Z,857.43
2017-03-25T00:04:54.627Z,857.41
2017-03-25T00:04:59.049Z,857.42
2017-03-25T00:05:03.484Z,857.41
2017-03-25T00:05:07.795Z,857.42
2017-03-25T00:05:12.239Z,857.41
2017-03-25T00:05:16.559Z,857.42
2017-03-25T00:05:21.002Z,857.41
2017-03-25T00:05:25.449Z,857.44
2017-03-25T00:05:29.548Z,857.41
2017-03-25T00:05:34.000Z,857.41
2017-03-25T00:05:38.341Z,857.42
2017-03-25T00:05:42.664Z,857.42
2017-03-25T00:05:47.107Z,857.39
2017-03-25T00:05:51.438Z,857.41
2017-03-25T00:05:55.879Z,857.37
2017-03-25T00:06:00.320Z,857.38
2017-03-25T00:06:04.753Z,857.42
2017-03-25T00:06:09.072Z,857.41
2017-03-25T00:06:13.396Z,857.43
2017-03-25T00:06:17.714Z,857.42
2017-03-25T00:06:22.143Z,857.41
2017-03-25T00:06:26.241Z,857.41
2017-03-25T00:06:30.678Z,857.43
2017-03-25T00:06:35.064Z,857.42
2017-03-25T00:06:39.270Z,857.41
2017-03-25T00:06:43.600Z,857.42
2017-03-25T00:06:47.936Z,857.45
2017-03-25T00:06:52.036Z,857.41
2017-03-25T00:06:56.125Z,857.45
2017-03-25T00:07:00.551Z,857.46
2017-03-25T00:07:05.031Z,857.46
2017-03-25T00:07:09.498Z,857.45
2017-03-25T00:07:13.697Z,857.44
2017-03-25T00:07:18.033Z,857.45
2017-03-25T00:07:22.498Z,857.43
2017-03-25T00:07:26.819Z,857.44
2017-03-25T00:07:31.052Z,857.44
2017-03-25T00:07:35.376Z,857.46
2017-03-25T00:07:39.592Z,857.46
2017-03-25T00:07:43.911Z,857.46
2017-03-25T00:07:48.009Z,857.41
2017-03-25T00:07:52.447Z,857.4
2017-03-25T00:07:56.898Z,857.43
2017-03-25T00:08:01.224Z,857.47
2017-03-25T00:08:05.464Z,857.44
2017-03-25T00:08:09.903Z,857.46
2017-03-25T00:08:14.367Z,857.47
2017-03-25T00:08:18.686Z,857.46
2017-03-25T00:08:22.905Z,857.45
2017-03-25T00:08:27.227Z,857.48
2017-03-25T00:08:31.442Z,857.49
2017-03-25T00:08:35.772Z,857.46
2017-03-25T00:08:40.212Z,857.47
2017-03-25T00:08:44.432Z,857.49
2017-03-25T00:08:48.869Z,857.44
2017-03-25T00:08:53.078Z,857.48
2017-03-25T00:08:57.391Z,857.45
2017-03-25T00:09:01.818Z,857.48
2017-03-25T00:09:06.261Z,857.5
2017-03-25T00:09:10.714Z,857.5
2017-03-25T00:09:15.086Z,857.47
2017-03-25T00:09:19.519Z,857.49
2017-03-25T00:09:23.843Z,857.47
2017-03-25T00:09:28.285Z,857.49
2017-03-25T00:09:32.722Z,857.49
2017-03-25T00:09:37.040Z,857.46
2017-03-25T00:09:41.369Z,857.52
2017-03-25T00:09:45.572Z,857.49
2017-03-25T00:09:49.901Z,857.52
2017-03-25T00:09:54.332Z,857.48
2017-03-25T00:09:58.788Z,857.49
2017-03-25T00:10:03.230Z,857.5
2017-03-25T00:10:07.356Z,857.51
2017-03-25T00:10:11.785Z,857.49
2017-03-25T00:10:15.758Z,857.51
2017-03-25T00:10:20.097Z,857.5
2017-03-25T00:10:24.190Z,857.47
2017-03-25T00:10:28.386Z,857.5
2017-03-25T00:10:32.707Z,857.51
2017-03-25T00:10:37.027Z,857.51
2017-03-25T00:10:41.230Z,857.45
2017-03-25T00:10:45.546Z,857.47
2017-03-25T00:10:49.864Z,857.46
2017-03-25T00:10:54.204Z,857.46
2017-03-25T00:10:58.697Z,857.47
2017-03-25T00:11:03.432Z,857.5
2017-03-25T00:11:07.540Z,857.51
2017-03-25T00:11:12.009Z,857.52
2017-03-25T00:11:16.338Z,857.56
2017-03-25T00:11:20.789Z,857.5
2017-03-25T00:11:25.013Z,857.53
2017-03-25T00:11:29.232Z,857.52
2017-03-25T00:11:33.573Z,857.48
2017-03-25T00:11:37.789Z,857.51
2017-03-25T00:11:42.232Z,857.49
2017-03-25T00:11:46.674Z,857.46
2017-03-25T00:11:51.095Z,857.51
2017-03-25T00:11:55.520Z,857.5
2017-03-25T00:11:59.998Z,857.54
2017-03-25T00:12:04.351Z,857.54
2017-03-25T00:12:08.667Z,857.53
2017-03-25T00:12:12.970Z,857.53
2017-03-25T00:12:17.283Z,857.52
2017-03-25T00:12:21.598Z,857.54
2017-03-25T00:12:26.025Z,857.55
2017-03-25T00:12:30.448Z,857.54
2017-03-25T00:12:34.879Z,857.51
2017-03-25T00:12:39.297Z,857.5
2017-03-25T00:12:43.607Z,857.51
2017-03-25T00:12:48.031Z,857.52
2017-03-25T00:12:52.341Z,857.48
2017-03-25T00:12:56.539Z,857.5
2017-03-25T00:13:00.965Z,857.48
2017-03-25T00:13:05.440Z,857.51
2017-03-25T00:13:09.866Z,857.5
2017-03-25T00:13:14.285Z,857.49
2017-03-25T00:13:18.472Z,857.49
2017-03-25T00:13:22.947Z,857.52
2017-03-25T00:13:27.382Z,857.49
2017-03-25T00:13:31.803Z,857.53
2017-03-25T00:13:36.234Z,857.49
2017-03-25T00:13:40.542Z,857.48
2017-03-25T00:13:44.975Z,857.51
2017-03-25T00:13:49.165Z,857.46
2017-03-25T00:13:53.590Z,857.49
2017-03-25T00:13:58.022Z,857.48
2017-03-25T00:14:02.446Z,857.49
2017-03-25T00:14:06.761Z,857.5
2017-03-25T00:14:11.083Z,857.54
2017-03-25T00:14:15.440Z,857.51
2017-03-25T00:14:19.867Z,857.49
2017-03-25T00:14:23.951Z,857.48
2017-03-25T00:14:28.383Z,857.47
2017-03-25T00:14:32.806Z,857.5
2017-03-25T00:14:37.005Z,857.48
2017-03-25T00:14:41.437Z,857.48
2017-03-25T00:14:45.861Z,857.49
2017-03-25T00:14:50.288Z,857.51
2017-03-25T00:14:54.481Z,857.51
2017-03-25T00:14:58.908Z,857.5
2017-03-25T00:15:03.335Z,857.49
2017-03-25T00:15:07.643Z,857.49
2017-03-25T00:15:11.948Z,857.5
2017-03-25T00:15:16.149Z,857.5
2017-03-25T00:15:20.454Z,857.48
2017-03-25T00:15:24.644Z,857.49
2017-03-25T00:15:29.071Z,857.5
2017-03-25T00:15:33.507Z,857.5
2017-03-25T00:15:37.930Z,857.46
2017-03-25T00:15:42.368Z,857.5
2017-03-25T00:15:46.673Z,857.51
2017-03-25T00:15:51.104Z,857.49
2017-03-25T00:15:55.420Z,857.49
2017-03-25T00:15:59.847Z,857.51
2017-03-25T00:16:04.274Z,857.52
2017-03-25T00:16:08.356Z,857.5
2017-03-25T00:16:12.823Z,857.49
2017-03-25T00:16:17.127Z,857.49
2017-03-25T00:16:21.319Z,857.52
2017-03-25T00:16:25.748Z,857.53
2017-03-25T00:16:30.232Z,857.51
2017-03-25T00:16:34.673Z,857.52
2017-03-25T00:16:38.996Z,857.48
2017-03-25T00:16:43.439Z,857.53
2017-03-25T00:16:47.757Z,857.53
2017-03-25T00:16:52.185Z,857.54
2017-03-25T00:16:56.612Z,857.53
2017-03-25T00:17:01.037Z,857.54
2017-03-25T00:17:05.471Z,857.53
2017-03-25T00:17:09.826Z,857.56
2017-03-25T00:17:14.272Z,857.53
2017-03-25T00:17:18.584Z,857.56
2017-03-25T00:17:22.890Z,857.54
2017-03-25T00:17:27.328Z,857.53
2017-03-25T00:17:31.758Z,857.58
2017-03-25T00:17:36.191Z,857.58
2017-03-25T00:17:40.619Z,857.53
2017-03-25T00:17:45.057Z,857.57
2017-03-25T00:17:49.378Z,857.6
2017-03-25T00:17:53.803Z,857.58
2017-03-25T00:17:58.114Z,857.6
2017-03-25T00:18:02.567Z,857.6
2017-03-25T00:18:06.996Z,857.57
2017-03-25T00:18:11.428Z,857.61
2017-03-25T00:18:15.751Z,857.59
2017-03-25T00:18:19.953Z,857.58
2017-03-25T00:18:24.259Z,857.6
2017-03-25T00:18:28.684Z,857.63
2017-03-25T00:18:33.121Z,857.61
2017-03-25T00:18:37.554Z,857.62
2017-03-25T00:18:41.981Z,857.6
2017-03-25T00:18:46.406Z,857.6
2017-03-25T00:18:50.602Z,857.63
2017-03-25T00:18:55.045Z,857.61
2017-03-25T00:18:59.465Z,857.62
2017-03-25T00:19:03.979Z,857.62
2017-03-25T00:19:08.454Z,857.62
2017-03-25T00:19:12.910Z,857.64
2017-03-25T00:19:17.335Z,857.6
2017-03-25T00:19:21.813Z,857.61
2017-03-25T00:19:26.240Z,857.62
2017-03-25T00:19:30.546Z,857.59
2017-03-25T00:19:34.738Z,857.65
2017-03-25T00:19:39.103Z,857.62
2017-03-25T00:19:43.616Z,857.6
2017-03-25T00:19:48.092Z,857.58
2017-03-25T00:19:52.398Z,857.61
2017-03-25T00:19:56.824Z,857.59
2017-03-25T00:20:01.253Z,857.58
2017-03-25T00:20:05.567Z,857.58
2017-03-25T00:20:09.876Z,857.52
2017-03-25T00:20:14.309Z,857.51
2017-03-25T00:20:18.509Z,857.6
2017-03-25T00:20:22.716Z,857.58
2017-03-25T00:20:27.156Z,857.58
2017-03-25T00:20:31.464Z,857.56
2017-03-25T00:20:35.659Z,857.59
2017-03-25T00:20:40.093Z,857.56
2017-03-25T00:20:44.515Z,857.55
2017-03-25T00:20:48.947Z,857.58
2017-03-25T00:20:53.264Z,857.56
2017-03-25T00:20:57.696Z,857.58
2017-03-25T00:21:02.276Z,857.54
2017-03-25T00:21:06.622Z,857.55
2017-03-25T00:21:11.051Z,857.59
2017-03-25T00:21:15.477Z,857.56
2017-03-25T00:21:19.909Z,857.59
2017-03-25T00:21:24.388Z,857.55
2017-03-25T00:21:28.638Z,857.58
2017-03-25T00:21:33.076Z,857.57
2017-03-25T00:21:37.382Z,857.54
2017-03-25T00:21:41.810Z,857.59
2017-03-25T00:21:46.236Z,857.59
2017-03-25T00:21:50.658Z,857.58
2017-03-25T00:21:55.083Z,857.57
2017-03-25T00:21:59.508Z,857.56
2017-03-25T00:22:04.036Z,857.58
2017-03-25T00:22:08.465Z,857.6
2017-03-25T00:22:12.894Z,857.55
2017-03-25T00:22:17.204Z,857.59
2017-03-25T00:22:21.400Z,857.59
2017-03-25T00:22:25.704Z,857.58
2017-03-25T00:22:30.129Z,857.6
2017-03-25T00:22:34.567Z,857.57
2017-03-25T00:22:38.877Z,857.56
2017-03-25T00:22:43.304Z,857.53
2017-03-25T00:22:47.740Z,857.57
2017-03-25T00:22:52.168Z,857.53
2017-03-25T00:22:56.590Z,857.51
2017-03-25T00:23:01.019Z,857.5
2017-03-25T00:23:05.447Z,857.49
2017-03-25T00:23:09.876Z,857.49
2017-03-25T00:23:14.296Z,857.46
2017-03-25T00:23:18.730Z,857.54
2017-03-25T00:23:23.156Z,857.51
2017-03-25T00:23:27.580Z,857.44
2017-03-25T00:23:31.897Z,857.51
2017-03-25T00:23:36.352Z,857.48
2017-03-25T00:23:40.715Z,857.54
2017-03-25T00:23:45.141Z,857.5
2017-03-25T00:23:49.571Z,857.52
2017-03-25T00:23:53.879Z,857.5
2017-03-25T00:23:58.306Z,857.48
2017-03-25T00:24:02.847Z,857.44
2017-03-25T00:24:07.044Z,857.45
2017-03-25T00:24:11.359Z,857.49
2017-03-25T00:24:15.784Z,857.51
2017-03-25T00:24:20.205Z,857.5
2017-03-25T00:24:24.548Z,857.48
2017-03-25T00:24:28.857Z,857.47
2017-03-25T00:24:33.287Z,857.49
2017-03-25T00:24:37.723Z,857.48
2017-03-25T00:24:42.150Z,857.48
2017-03-25T00:24:46.584Z,857.49
2017-03-25T00:24:51.017Z,857.47
2017-03-25T00:24:55.214Z,857.47
2017-03-25T00:24:59.647Z,857.42
2017-03-25T00:25:04.075Z,857.46
2017-03-25T00:25:08.504Z,857.44
2017-03-25T00:25:12.933Z,857.46
2017-03-25T00:25:17.250Z,857.43
2017-03-25T00:25:21.564Z,857.44
2017-03-25T00:25:25.991Z,857.44
2017-03-25T00:25:30.427Z,857.39
2017-03-25T00:25:34.859Z,857.42
2017-03-25T00:25:39.292Z,857.42
2017-03-25T00:25:43.739Z,857.41
2017-03-25T00:25:47.937Z,857.41
2017-03-25T00:25:52.249Z,857.41
2017-03-25T00:25:56.726Z,857.39
2017-03-25T00:26:01.153Z,857.38
2017-03-25T00:26:05.792Z,857.41
2017-03-25T00:26:10.106Z,857.39
2017-03-25T00:26:14.542Z,857.37
2017-03-25T00:26:18.967Z,857.39
2017-03-25T00:26:23.157Z,857.36
2017-03-25T00:26:27.593Z,857.39
2017-03-25T00:26:31.961Z,857.4
2017-03-25T00:26:36.392Z,857.38
2017-03-25T00:26:40.710Z,857.36
2017-03-25T00:26:45.134Z,857.39
2017-03-25T00:26:49.228Z,857.39
2017-03-25T00:26:53.657Z,857.38
2017-03-25T00:26:58.083Z,857.37
2017-03-25T00:27:02.661Z,857.35
2017-03-25T00:27:07.100Z,857.35
2017-03-25T00:27:11.530Z,857.3
2017-03-25T00:27:15.843Z,857.29
2017-03-25T00:27:20.046Z,857.3
2017-03-25T00:27:24.356Z,857.28
2017-03-25T00:27:28.781Z,857.34
2017-03-25T00:27:33.253Z,857.32
2017-03-25T00:27:37.446Z,857.34
2017-03-25T00:27:41.760Z,857.34
2017-03-25T00:27:46.186Z,857.34
2017-03-25T00:27:50.651Z,857.31
2017-03-25T00:27:55.081Z,857.32
2017-03-25T00:27:59.500Z,857.31
2017-03-25T00:28:03.924Z,857.31
2017-03-25T00:28:08.351Z,857.31
2017-03-25T00:28:12.659Z,857.3
2017-03-25T00:28:16.962Z,857.28
2017-03-25T00:28:21.385Z,857.29
2017-03-25T00:28:25.693Z,857.32
2017-03-25T00:28:29.999Z,857.31
2017-03-25T00:28:34.425Z,857.28
2017-03-25T00:28:38.847Z,857.27
2017-03-25T00:28:43.160Z,857.26
2017-03-25T00:28:47.469Z,857.27
2017-03-25T00:28:51.896Z,857.25
2017-03-25T00:28:56.323Z,857.23
2017-03-25T00:29:00.750Z,857.24
2017-03-25T00:29:05.234Z,857.24
2017-03-25T00:29:09.665Z,857.25
2017-03-25T00:29:13.973Z,857.23
2017-03-25T00:29:18.394Z,857.25
2017-03-25T00:29:22.578Z,857.24
2017-03-25T00:29:26.884Z,857.22
2017-03-25T00:29:31.322Z,857.21
2017-03-25T00:29:35.796Z,857.22
2017-03-25T00:29:40.227Z,857.19
2017-03-25T00:29:44.664Z,857.19
2017-03-25T00:29:49.099Z,857.22
2017-03-25T00:29:53.404Z,857.18
2017-03-25T00:29:57.826Z,857.22
2017-03-25T00:30:02.255Z,857.22
2017-03-25T00:30:06.720Z,857.18
2017-03-25T00:30:11.033Z,857.17
2017-03-25T00:30:15.227Z,857.18
2017-03-25T00:30:19.651Z,857.17
2017-03-25T00:30:23.850Z,857.2
2017-03-25T00:30:28.163Z,857.18
2017-03-25T00:30:32.591Z,857.18
2017-03-25T00:30:37.032Z,857.17
2017-03-25T00:30:41.228Z,857.18
2017-03-25T00:30:45.655Z,857.17
2017-03-25T00:30:50.104Z,857.2
2017-03-25T00:30:54.526Z,857.2
2017-03-25T00:30:58.957Z,857.19
2017-03-25T00:31:03.435Z,857.2
2017-03-25T00:31:07.792Z,857.16
2017-03-25T00:31:12.215Z,857.21
2017-03-25T00:31:16.521Z,857.2
2017-03-25T00:31:20.962Z,857.18
2017-03-25T00:31:25.392Z,857.2
2017-03-25T00:31:29.823Z,857.2
2017-03-25T00:31:34.144Z,857.18
2017-03-25T00:31:38.622Z,857.17
2017-03-25T00:31:43.049Z,857.2
2017-03-25T00:31:47.472Z,857.19
2017-03-25T00:31:51.829Z,857.18
2017-03-25T00:31:56.257Z,857.18
2017-03-25T00:32:00.680Z,857.2
2017-03-25T00:32:05.248Z,857.19
2017-03-25T00:32:09.562Z,857.18
2017-03-25T00:32:13.990Z,857.19
2017-03-25T00:32:18.291Z,857.21
2017-03-25T00:32:22.603Z,857.19
2017-03-25T00:32:26.918Z,857.19
2017-03-25T00:32:31.342Z,857.18
2017-03-25T00:32:35.768Z,857.19
2017-03-25T00:32:40.191Z,857.2
2017-03-25T00:32:44.628Z,857.17
2017-03-25T00:32:49.051Z,857.17
2017-03-25T00:32:53.469Z,857.18
2017-03-25T00:32:57.894Z,857.19
2017-03-25T00:33:02.206Z,857.18
2017-03-25T00:33:06.524Z,857.22
2017-03-25T00:33:10.947Z,857.21
2017-03-25T00:33:15.370Z,857.22
2017-03-25T00:33:19.603Z,857.21
2017-03-25T00:33:23.915Z,857.2
2017-03-25T00:33:28.221Z,857.23
2017-03-25T00:33:32.648Z,857.21
2017-03-25T00:33:37.081Z,857.19
2017-03-25T00:33:41.511Z,857.23
2017-03-25T00:33:45.940Z,857.18
2017-03-25T00:33:50.399Z,857.25
2017-03-25T00:33:54.715Z,857.17
2017-03-25T00:33:59.025Z,857.21
2017-03-25T00:34:03.763Z,857.23
2017-03-25T00:34:08.240Z,857.22
2017-03-25T00:34:12.659Z,857.23
2017-03-25T00:34:16.973Z,857.22
2017-03-25T00:34:21.396Z,857.26
2017-03-25T00:34:25.823Z,857.26
2017-03-25T00:34:30.136Z,857.22
2017-03-25T00:34:34.569Z,857.27
2017-03-25T00:34:38.990Z,857.24
2017-03-25T00:34:43.420Z,857.28
2017-03-25T00:34:47.849Z,857.22
2017-03-25T00:34:52.275Z,857.24
2017-03-25T00:34:56.584Z,857.24
2017-03-25T00:35:01.005Z,857.25
2017-03-25T00:35:05.369Z,857.27
2017-03-25T00:35:09.801Z,857.24
2017-03-25T00:35:14.222Z,857.24
2017-03-25T00:35:18.646Z,857.24
2017-03-25T00:35:23.092Z,857.23
2017-03-25T00:35:27.517Z,857.26
2017-03-25T00:35:31.943Z,857.26
2017-03-25T00:35:36.247Z,857.25
2017-03-25T00:35:40.686Z,857.28
2017-03-25T00:35:45.110Z,857.24
2017-03-25T00:35:49.542Z,857.28
2017-03-25T00:35:53.730Z,857.24
2017-03-25T00:35:58.159Z,857.23
2017-03-25T00:36:02.587Z,857.22
2017-03-25T00:36:06.912Z,857.23
2017-03-25T00:36:11.222Z,857.24
2017-03-25T00:36:15.422Z,857.23
2017-03-25T00:36:19.738Z,857.22
2017-03-25T00:36:24.168Z,857.26
2017-03-25T00:36:28.481Z,857.24
2017-03-25T00:36:32.914Z,857.32
2017-03-25T00:36:37.352Z,857.31
2017-03-25T00:36:41.774Z,857.3
2017-03-25T00:36:46.237Z,857.32
2017-03-25T00:36:50.668Z,857.32
2017-03-25T00:36:55.097Z,857.28
2017-03-25T00:36:59.526Z,857.34
2017-03-25T00:37:03.887Z,857.32
2017-03-25T00:37:08.310Z,857.33
2017-03-25T00:37:12.732Z,857.32
2017-03-25T00:37:17.041Z,857.36
2017-03-25T00:37:21.358Z,857.39
2017-03-25T00:37:25.670Z,857.29
2017-03-25T00:37:30.097Z,857.35
2017-03-25T00:37:34.546Z,857.34
2017-03-25T00:37:38.852Z,857.34
2017-03-25T00:37:43.166Z,857.34
2017-03-25T00:37:47.475Z,857.37
2017-03-25T00:37:51.902Z,857.37
2017-03-25T00:37:56.340Z,857.39
2017-03-25T00:38:00.767Z,857.39
2017-03-25T00:38:05.189Z,857.38
2017-03-25T00:38:09.494Z,857.37
2017-03-25T00:38:13.800Z,857.38
2017-03-25T00:38:18.229Z,857.37
2017-03-25T00:38:22.695Z,857.36
2017-03-25T00:38:27.121Z,857.36
2017-03-25T00:38:31.549Z,857.38
2017-03-25T00:38:35.900Z,857.41
2017-03-25T00:38:40.321Z,857.4
2017-03-25T00:38:44.745Z,857.37
2017-03-25T00:38:48.975Z,857.37
2017-03-25T00:38:53.281Z,857.33
2017-03-25T00:38:57.709Z,857.32
2017-03-25T00:39:02.446Z,857.34
2017-03-25T00:39:06.757Z,857.31
2017-03-25T00:39:11.186Z,857.38
2017-03-25T00:39:15.491Z,857.38
2017-03-25T00:39:19.797Z,857.39
2017-03-25T00:39:23.986Z,857.37
2017-03-25T00:39:28.408Z,857.39
2017-03-25T00:39:32.838Z,857.39
2017-03-25T00:39:37.164Z,857.38
2017-03-25T00:39:41.487Z,857.38
2017-03-25T00:39:46.167Z,857.4
2017-03-25T00:39:50.483Z,857.36
2017-03-25T00:39:54.795Z,857.37
2017-03-25T00:39:59.221Z,857.37
2017-03-25T00:40:03.526Z,857.35
2017-03-25T00:40:07.957Z,857.34
2017-03-25T00:40:12.303Z,857.37
2017-03-25T00:40:16.724Z,857.34
2017-03-25T00:40:21.035Z,857.33
2017-03-25T00:40:25.367Z,857.35
2017-03-25T00:40:29.670Z,857.36
2017-03-25T00:40:33.981Z,857.32
2017-03-25T00:40:38.404Z,857.3
2017-03-25T00:40:42.604Z,857.28
2017-03-25T00:40:47.029Z,857.35
2017-03-25T00:40:51.452Z,857.32
2017-03-25T00:40:55.885Z,857.3
2017-03-25T00:41:00.314Z,857.31
2017-03-25T00:41:04.740Z,857.31
2017-03-25T00:41:09.213Z,857.32
2017-03-25T00:41:13.642Z,857.29
2017-03-25T00:41:18.080Z,857.31
2017-03-25T00:41:22.512Z,857.31
2017-03-25T00:41:26.940Z,857.29
2017-03-25T00:41:31.371Z,857.3
2017-03-25T00:41:35.805Z,857.33
2017-03-25T00:41:40.228Z,857.33
2017-03-25T00:41:44.419Z,857.32
2017-03-25T00:41:48.860Z,857.27
2017-03-25T00:41:53.170Z,857.3
2017-03-25T00:41:57.595Z,857.31
2017-03-25T00:42:02.025Z,857.32
2017-03-25T00:42:06.452Z,857.29
2017-03-25T00:42:10.765Z,857.29
2017-03-25T00:42:14.998Z,857.26
2017-03-25T00:42:19.191Z,857.25
2017-03-25T00:42:23.385Z,857.24
2017-03-25T00:42:27.809Z,857.27
2017-03-25T00:42:32.235Z,857.28
2017-03-25T00:42:36.659Z,857.32
2017-03-25T00:42:40.858Z,857.29
2017-03-25T00:42:45.287Z,857.29
2017-03-25T00:42:49.704Z,857.22
2017-03-25T00:42:54.139Z,857.26
2017-03-25T00:42:58.569Z,857.32
2017-03-25T00:43:02.994Z,857.28
2017-03-25T00:43:07.422Z,857.26
2017-03-25T00:43:11.847Z,857.25
2017-03-25T00:43:16.277Z,857.26
2017-03-25T00:43:20.707Z,857.25
2017-03-25T00:43:25.132Z,857.26
2017-03-25T00:43:29.551Z,857.31
2017-03-25T00:43:33.875Z,857.29
2017-03-25T00:43:38.184Z,857.26
2017-03-25T00:43:42.607Z,857.28
2017-03-25T00:43:46.916Z,857.3
2017-03-25T00:43:51.341Z,857.25
2017-03-25T00:43:55.765Z,857.28
2017-03-25T00:44:00.189Z,857.27
2017-03-25T00:44:04.861Z,857.31
2017-03-25T00:44:09.165Z,857.29
2017-03-25T00:44:13.472Z,857.3
2017-03-25T00:44:17.908Z,857.26
2017-03-25T00:44:22.215Z,857.25
2017-03-25T00:44:26.647Z,857.28
2017-03-25T00:44:31.125Z,857.3
2017-03-25T00:44:35.552Z,857.28
2017-03-25T00:44:39.992Z,857.24
2017-03-25T00:44:44.420Z,857.26
2017-03-25T00:44:48.847Z,857.29
2017-03-25T00:44:53.155Z,857.26
2017-03-25T00:44:57.622Z,857.25
2017-03-25T00:45:02.050Z,857.27
2017-03-25T00:45:06.360Z,857.26
2017-03-25T00:45:10.790Z,857.26
2017-03-25T00:45:15.214Z,857.22
2017-03-25T00:45:19.407Z,857.25
2017-03-25T00:45:23.709Z,857.26
2017-03-25T00:45:27.904Z,857.2
2017-03-25T00:45:32.337Z,857.2
2017-03-25T00:45:36.784Z,857.19
2017-03-25T00:45:41.213Z,857.21
2017-03-25T00:45:45.652Z,857.19
2017-03-25T00:45:50.080Z,857.24
2017-03-25T00:45:54.390Z,857.18
2017-03-25T00:45:58.825Z,857.18
2017-03-25T00:46:03.352Z,857.2
2017-03-25T00:46:07.661Z,857.23
2017-03-25T00:46:12.147Z,857.19
2017-03-25T00:46:16.339Z,857.21
2017-03-25T00:46:20.533Z,857.19
2017-03-25T00:46:24.962Z,857.21
2017-03-25T00:46:29.278Z,857.17
2017-03-25T00:46:33.707Z,857.2
2017-03-25T00:46:38.133Z,857.16
2017-03-25T00:46:42.556Z,857.16
2017-03-25T00:46:46.759Z,857.18
2017-03-25T00:46:50.953Z,857.18
2017-03-25T00:46:55.377Z,857.19
2017-03-25T00:46:59.839Z,857.16
2017-03-25T00:47:04.311Z,857.18
2017-03-25T00:47:08.737Z,857.17
2017-03-25T00:47:13.052Z,857.17
2017-03-25T00:47:17.525Z,857.16
2017-03-25T00:47:21.718Z,857.18
2017-03-25T00:47:26.139Z,857.19
2017-03-25T00:47:30.581Z,857.21
2017-03-25T00:47:35.010Z,857.18
2017-03-25T00:47:39.315Z,857.18
2017-03-25T00:47:43.618Z,857.11
2017-03-25T00:47:48.042Z,857.12
2017-03-25T00:47:52.363Z,857.15
2017-03-25T00:47:56.785Z,857.13
2017-03-25T00:48:01.207Z,857.15
2017-03-25T00:48:05.636Z,857.14
2017-03-25T00:48:09.960Z,857.16
2017-03-25T00:48:14.270Z,857.12
2017-03-25T00:48:18.576Z,857.16
2017-03-25T00:48:22.899Z,857.13
2017-03-25T00:48:27.322Z,857.07
2017-03-25T00:48:31.748Z,857.09
2017-03-25T00:48:36.072Z,857.09
2017-03-25T00:48:40.496Z,857.07
2017-03-25T00:48:44.922Z,857.07
2017-03-25T00:48:49.246Z,857.12
2017-03-25T00:48:53.675Z,857.12
2017-03-25T00:48:58.103Z,857.12
2017-03-25T00:49:02.792Z,857.11
2017-03-25T00:49:07.215Z,857.1
2017-03-25T00:49:11.518Z,857.07
2017-03-25T00:49:15.709Z,857.1
2017-03-25T00:49:20.015Z,857.08
2017-03-25T00:49:24.454Z,857.1
2017-03-25T00:49:28.905Z,857.07
2017-03-25T00:49:33.223Z,857.07
2017-03-25T00:49:37.651Z,857.04
2017-03-25T00:49:42.076Z,857.07
2017-03-25T00:49:46.575Z,857.05
2017-03-25T00:49:50.885Z,857.07
2017-03-25T00:49:55.315Z,857.03
2017-03-25T00:49:59.734Z,857.09
2017-03-25T00:50:04.043Z,857.06
2017-03-25T00:50:08.350Z,857.04
2017-03-25T00:50:12.535Z,857.03
2017-03-25T00:50:16.847Z,857.03
2017-03-25T00:50:21.202Z,857.02
2017-03-25T00:50:25.626Z,857.03
2017-03-25T00:50:30.059Z,857.03
2017-03-25T00:50:34.488Z,856.97
2017-03-25T00:50:38.799Z,857.02
2017-03-25T00:50:43.234Z,857
2017-03-25T00:50:47.704Z,857.01
2017-03-25T00:50:52.126Z,857
2017-03-25T00:50:56.549Z,856.99
2017-03-25T00:51:00.866Z,857.01
2017-03-25T00:51:05.178Z,857
2017-03-25T00:51:09.602Z,857.03
2017-03-25T00:51:14.032Z,856.99
2017-03-25T00:51:18.340Z,857.01
2017-03-25T00:51:22.696Z,857.03
2017-03-25T00:51:27.118Z,857
2017-03-25T00:51:31.430Z,856.96
2017-03-25T00:51:35.738Z,856.99
2017-03-25T00:51:39.930Z,856.99
2017-03-25T00:51:44.359Z,857
2017-03-25T00:51:48.778Z,856.99
2017-03-25T00:51:53.199Z,856.95
2017-03-25T00:51:57.512Z,856.98
2017-03-25T00:52:01.828Z,856.97
2017-03-25T00:52:05.899Z,856.96
2017-03-25T00:52:10.325Z,856.94
2017-03-25T00:52:14.802Z,856.95
2017-03-25T00:52:19.229Z,856.96
2017-03-25T00:52:23.656Z,856.95
2017-03-25T00:52:28.085Z,856.95
2017-03-25T00:52:32.537Z,856.96
2017-03-25T00:52:36.965Z,856.94
2017-03-25T00:52:41.279Z,856.91
2017-03-25T00:52:45.593Z,856.96
2017-03-25T00:52:50.020Z,856.89
2017-03-25T00:52:54.213Z,856.94
2017-03-25T00:52:58.643Z,856.9
2017-03-25T00:53:03.075Z,856.94
2017-03-25T00:53:07.506Z,856.93
2017-03-25T00:53:11.929Z,856.92
2017-03-25T00:53:16.361Z,856.9
2017-03-25T00:53:20.675Z,856.91
2017-03-25T00:53:25.096Z,856.91
2017-03-25T00:53:29.520Z,856.91
2017-03-25T00:53:33.956Z,856.9
2017-03-25T00:53:38.383Z,856.9
2017-03-25T00:53:42.810Z,856.9
2017-03-25T00:53:47.006Z,856.92
2017-03-25T00:53:51.434Z,856.89
2017-03-25T00:53:55.857Z,856.9
2017-03-25T00:54:00.284Z,856.93
2017-03-25T00:54:04.819Z,856.89
2017-03-25T00:54:09.247Z,856.92
2017-03-25T00:54:13.675Z,856.89
2017-03-25T00:54:18.093Z,856.93
2017-03-25T00:54:22.517Z,856.93
2017-03-25T00:54:26.826Z,856.89
2017-03-25T00:54:31.253Z,856.85
2017-03-25T00:54:35.331Z,856.91
2017-03-25T00:54:39.527Z,856.87
2017-03-25T00:54:43.953Z,856.91
2017-03-25T00:54:48.381Z,856.88